Time;durP1;ratioP1;P1;durP2;ratioP2;P2;SDS_P1;SDS_P2;PMS_P1;PMS_P2;Temp;Humidity;BMP_temperature;BMP_pressure;BME280_temperature;BME280_humidity;BME280_pressure;Samples;Min_cycle;Max_cycle;Signal;HPM_P1;HPM_P2
2022/05/29 00:01:17;;;;;;;0.40;0.20;;;12.20;99.90;;;;;;4931249;29;20409;-75
2022/05/29 00:03:43;;;;;;;0.40;0.20;;;12.30;99.90;;;;;;4936033;29;20387;-75
2022/05/29 00:06:11;;;;;;;0.40;0.20;;;12.30;99.90;;;;;;4936904;29;20804;-75
2022/05/29 00:08:40;;;;;;;0.40;0.20;;;12.30;99.90;;;;;;4935149;29;20513;-75
2022/05/29 00:11:09;;;;;;;0.40;0.20;;;12.30;99.90;;;;;;4936561;29;20399;-75
2022/05/29 00:13:35;;;;;;;0.40;0.20;;;12.30;99.90;;;;;;4933954;29;20423;-75
2022/05/29 00:16:01;;;;;;;0.50;0.50;;;12.30;99.90;;;;;;4917465;29;20751;-75
2022/05/29 00:18:27;;;;;;;0.40;0.20;;;12.20;99.90;;;;;;4927742;29;20407;-75
2022/05/29 00:20:56;;;;;;;0.40;0.20;;;12.10;99.90;;;;;;4935271;29;20383;-75
2022/05/29 00:23:23;;;;;;;0.40;0.30;;;12.10;99.90;;;;;;4928274;29;20409;-75
2022/05/29 00:25:51;;;;;;;0.40;0.20;;;12.20;99.90;;;;;;4928195;29;20442;-75
2022/05/29 00:28:17;;;;;;;0.40;0.20;;;12.10;99.90;;;;;;4936052;29;20899;-75
2022/05/29 00:30:45;;;;;;;0.40;0.30;;;12.00;99.90;;;;;;4935845;29;20392;-75
2022/05/29 00:33:10;;;;;;;0.40;0.20;;;12.00;99.90;;;;;;4920856;29;20425;-75
2022/05/29 00:35:39;;;;;;;0.40;0.20;;;11.90;99.90;;;;;;4921853;29;20566;-75
2022/05/29 00:38:10;;;;;;;0.40;0.20;;;12.00;99.90;;;;;;4936071;29;20423;-75
2022/05/29 00:41:02;;;;;;;0.40;0.20;;;12.00;99.90;;;;;;4935246;29;20399;-75
2022/05/29 00:43:28;;;;;;;0.40;0.20;;;12.10;99.90;;;;;;4928190;29;20423;-75
2022/05/29 00:46:00;;;;;;;0.40;0.20;;;12.10;99.90;;;;;;4934861;29;20406;-75
2022/05/29 00:48:27;;;;;;;0.40;0.20;;;12.10;99.90;;;;;;4935988;29;20458;-75
2022/05/29 00:51:04;;;;;;;0.40;0.20;;;11.90;99.90;;;;;;4933912;29;21117;-75
2022/05/29 00:53:32;;;;;;;0.40;0.20;;;11.80;99.90;;;;;;4927698;29;20412;-75
2022/05/29 00:56:07;;;;;;;0.40;0.20;;;12.00;99.90;;;;;;4926184;29;20432;-75
2022/05/29 00:58:33;;;;;;;0.40;0.20;;;11.90;99.90;;;;;;4935732;29;20458;-75
2022/05/29 01:00:59;;;;;;;0.40;0.30;;;11.90;99.90;;;;;;4934501;29;20400;-75
2022/05/29 01:03:24;;;;;;;0.40;0.20;;;11.80;99.90;;;;;;4928137;29;20544;-75
2022/05/29 01:05:51;;;;;;;0.40;0.30;;;11.70;99.90;;;;;;4917152;29;20874;-76
2022/05/29 01:08:21;;;;;;;0.40;0.30;;;11.80;99.90;;;;;;4935818;29;20384;-75
2022/05/29 01:11:07;;;;;;;0.40;0.20;;;11.80;99.90;;;;;;4924324;29;20409;-76
2022/05/29 01:13:52;;;;;;;0.40;0.20;;;11.70;99.90;;;;;;4925325;29;20428;-75
2022/05/29 01:16:24;;;;;;;0.40;0.20;;;11.70;99.90;;;;;;4934295;29;20785;-74
2022/05/29 01:19:12;;;;;;;0.40;0.20;;;11.70;99.90;;;;;;4933088;29;20410;-75
2022/05/29 01:22:07;;;;;;;0.40;0.30;;;11.60;99.90;;;;;;4925869;29;20434;-75
2022/05/29 01:24:41;;;;;;;0.40;0.20;;;11.50;99.90;;;;;;4934547;29;20816;-75
2022/05/29 01:27:16;;;;;;;0.40;0.20;;;11.50;99.90;;;;;;4935569;29;20392;-75
2022/05/29 01:30:05;;;;;;;0.40;0.30;;;11.40;99.90;;;;;;4934529;29;20414;-75
2022/05/29 01:33:00;;;;;;;0.40;0.20;;;11.40;99.90;;;;;;4935015;29;20399;-75
2022/05/29 01:35:44;;;;;;;0.50;0.50;;;11.50;99.90;;;;;;4905409;29;20769;-75
2022/05/29 01:38:16;;;;;;;0.50;0.50;;;11.40;99.90;;;;;;4933825;29;20495;-75
2022/05/29 01:40:49;;;;;;;0.40;0.20;;;11.40;99.90;;;;;;4919248;29;20409;-73
2022/05/29 01:43:26;;;;;;;0.40;0.20;;;11.30;99.90;;;;;;4922607;29;20496;-74
2022/05/29 01:46:00;;;;;;;0.50;0.50;;;11.40;99.90;;;;;;4924348;29;20408;-74
2022/05/29 01:48:31;;;;;;;0.40;0.20;;;11.30;99.90;;;;;;4935183;29;20396;-74
2022/05/29 01:51:16;;;;;;;0.40;0.30;;;11.30;99.90;;;;;;4929505;29;20563;-74
2022/05/29 01:53:56;;;;;;;0.40;0.40;;;11.40;99.90;;;;;;4923276;29;20526;-74
2022/05/29 01:56:27;;;;;;;0.40;0.40;;;11.20;99.90;;;;;;4934791;29;20782;-74
2022/05/29 01:59:00;;;;;;;0.40;0.20;;;11.30;99.90;;;;;;4934159;29;20466;-74
2022/05/29 02:01:31;;;;;;;0.40;0.20;;;11.20;99.90;;;;;;4930154;29;20917;-74
2022/05/29 02:04:01;;;;;;;0.40;0.20;;;11.10;99.90;;;;;;4924572;29;20502;-74
2022/05/29 02:09:40;;;;;;;0.50;0.50;;;10.90;99.90;;;;;;4915576;29;20441;-73
2022/05/29 02:12:10;;;;;;;0.40;0.30;;;11.00;99.90;;;;;;4926689;29;20411;-74
2022/05/29 02:14:50;;;;;;;0.40;0.20;;;10.90;99.90;;;;;;4934328;29;20546;-73
2022/05/29 02:17:21;;;;;;;0.40;0.40;;;10.90;99.90;;;;;;4934717;29;20399;-74
2022/05/29 02:20:17;;;;;;;0.40;0.20;;;10.90;99.90;;;;;;4930616;29;20406;-74
2022/05/29 02:22:45;;;;;;;0.40;0.20;;;10.80;99.90;;;;;;4930862;29;20519;-72
2022/05/29 02:25:18;;;;;;;0.40;0.20;;;10.90;99.90;;;;;;4933959;29;20524;-74
2022/05/29 02:27:52;;;;;;;0.40;0.20;;;11.00;99.90;;;;;;4932148;29;20411;-74
2022/05/29 02:30:18;;;;;;;2.50;0.70;;;11.00;99.90;;;;;;4932931;29;20923;-74
2022/05/29 02:32:56;;;;;;;0.40;0.20;;;11.00;99.90;;;;;;4914617;29;20499;-74
2022/05/29 02:35:43;;;;;;;0.40;0.20;;;11.00;99.90;;;;;;4923569;29;20414;-74
2022/05/29 02:38:24;;;;;;;0.40;0.30;;;11.00;99.90;;;;;;4920198;29;20422;-75
2022/05/29 02:41:07;;;;;;;0.40;0.20;;;10.90;99.90;;;;;;4932747;29;20431;-74
2022/05/29 02:43:57;;;;;;;0.40;0.20;;;10.80;99.90;;;;;;4934053;29;20401;-74
2022/05/29 02:46:48;;;;;;;0.40;0.20;;;10.60;99.90;;;;;;4923932;29;20404;-74
2022/05/29 02:49:24;;;;;;;0.40;0.20;;;10.60;99.90;;;;;;4933562;29;20411;-74
2022/05/29 02:51:52;;;;;;;0.40;0.20;;;10.80;99.90;;;;;;4932463;29;20403;-74
2022/05/29 02:54:27;;;;;;;0.40;0.30;;;10.80;99.90;;;;;;4933382;29;20840;-75
2022/05/29 02:56:53;;;;;;;0.40;0.20;;;10.90;99.90;;;;;;4932900;29;20411;-74
2022/05/29 02:59:22;;;;;;;0.40;0.20;;;10.80;99.90;;;;;;4933459;29;20403;-74
2022/05/29 03:02:05;;;;;;;0.40;0.20;;;10.80;99.90;;;;;;4919127;29;20413;-74
2022/05/29 03:04:40;;;;;;;0.40;0.20;;;10.80;99.90;;;;;;4933772;29;20399;-74
2022/05/29 03:07:08;;;;;;;0.40;0.20;;;10.80;99.90;;;;;;4932769;29;20408;-74
2022/05/29 03:09:43;;;;;;;0.40;0.20;;;10.70;99.90;;;;;;4933585;29;20414;-74
2022/05/29 03:12:29;;;;;;;0.40;0.20;;;10.60;99.90;;;;;;4932558;29;20404;-74
2022/05/29 03:15:30;;;;;;;0.40;0.20;;;10.60;99.90;;;;;;4913928;29;20789;-75
2022/05/29 03:18:23;;;;;;;0.40;0.20;;;10.50;99.90;;;;;;4890825;29;20448;-74
2022/05/29 03:21:12;;;;;;;0.40;0.20;;;10.40;99.90;;;;;;4918805;29;20899;-74
2022/05/29 03:24:06;;;;;;;0.40;0.20;;;10.50;99.90;;;;;;4912474;29;20425;-74
2022/05/29 03:26:48;;;;;;;0.40;0.20;;;10.50;99.90;;;;;;4914467;29;20432;-74
2022/05/29 03:29:25;;;;;;;0.40;0.30;;;10.40;99.90;;;;;;4929539;29;20768;-75
2022/05/29 03:31:52;;;;;;;0.40;0.20;;;10.50;99.90;;;;;;4932685;29;20804;-75
2022/05/29 03:34:20;;;;;;;0.40;0.20;;;10.50;99.90;;;;;;4933807;29;20415;-75
2022/05/29 03:36:48;;;;;;;0.50;0.50;;;10.50;99.90;;;;;;4926805;29;20838;-75
2022/05/29 03:39:14;;;;;;;0.40;0.20;;;10.50;99.90;;;;;;4919790;29;20492;-75
2022/05/29 03:41:49;;;;;;;0.40;0.20;;;10.40;99.90;;;;;;4915837;29;20443;-75
2022/05/29 03:44:18;;;;;;;0.40;0.20;;;10.30;99.90;;;;;;4948195;29;20423;-75
2022/05/29 03:46:44;;;;;;;0.40;0.20;;;10.10;99.90;;;;;;4924442;29;20878;-75
2022/05/29 03:49:14;;;;;;;0.40;0.20;;;10.00;99.90;;;;;;4913476;29;20972;-75
2022/05/29 03:51:40;;;;;;;0.40;0.20;;;10.00;99.90;;;;;;4933018;29;20419;-75
2022/05/29 03:54:06;;;;;;;0.40;0.20;;;10.00;99.90;;;;;;4932590;29;20443;-75
2022/05/29 03:56:32;;;;;;;0.40;0.20;;;10.10;99.90;;;;;;4932971;29;20466;-75
2022/05/29 03:58:58;;;;;;;0.40;0.20;;;10.10;99.90;;;;;;4932470;29;20399;-75
2022/05/29 04:01:24;;;;;;;0.40;0.20;;;10.10;99.90;;;;;;4932237;29;20769;-75
2022/05/29 04:03:53;;;;;;;0.40;0.30;;;9.90;99.90;;;;;;4931980;29;20462;-74
2022/05/29 04:06:23;;;;;;;0.40;0.20;;;9.80;99.90;;;;;;4931646;29;20582;-75
2022/05/29 04:14:21;;;;;;;0.40;0.22;;;10.00;99.90;;;;;;4932568;29;20931;-75
2022/05/29 04:16:47;;;;;;;0.40;0.20;;;10.10;99.90;;;;;;4918965;29;20416;-74
2022/05/29 04:19:13;;;;;;;0.40;0.20;;;10.00;99.90;;;;;;4933355;29;20387;-75
2022/05/29 04:21:39;;;;;;;0.40;0.20;;;9.80;99.90;;;;;;4933063;29;20399;-75
2022/05/29 04:24:06;;;;;;;0.40;0.20;;;9.90;99.90;;;;;;4931959;29;20434;-75
2022/05/29 04:26:33;;;;;;;0.40;0.30;;;10.00;99.90;;;;;;4932939;29;20742;-75
2022/05/29 04:29:00;;;;;;;0.40;0.30;;;10.10;99.90;;;;;;4930893;29;20484;-75
2022/05/29 04:31:26;;;;;;;0.40;0.20;;;10.00;99.90;;;;;;4928562;29;20412;-75
2022/05/29 04:33:52;;;;;;;0.47;0.43;;;10.00;99.90;;;;;;4923408;29;20837;-75
2022/05/29 04:36:18;;;;;;;0.40;0.30;;;9.90;99.90;;;;;;4936398;29;20495;-75
2022/05/29 04:38:43;;;;;;;0.40;0.20;;;10.00;99.90;;;;;;4936732;29;20406;-75
2022/05/29 04:41:09;;;;;;;0.40;0.20;;;10.00;99.90;;;;;;4935727;29;20476;-75
2022/05/29 04:43:35;;;;;;;0.40;0.20;;;10.00;99.90;;;;;;4931049;29;20468;-75
2022/05/29 04:46:02;;;;;;;0.40;0.20;;;10.00;99.90;;;;;;4924946;29;20422;-75
2022/05/29 04:48:27;;;;;;;0.40;0.20;;;10.10;99.90;;;;;;4936706;29;20388;-75
2022/05/29 04:51:05;;;;;;;0.40;0.20;;;10.10;99.90;;;;;;4934867;29;20931;-75
2022/05/29 04:53:32;;;;;;;0.40;0.20;;;10.00;99.90;;;;;;4931348;29;20448;-75
2022/05/29 04:55:59;;;;;;;0.40;0.20;;;9.90;99.90;;;;;;4917200;29;20452;-75
2022/05/29 04:58:27;;;;;;;0.40;0.20;;;10.00;99.90;;;;;;4936309;29;20399;-75
2022/05/29 05:00:58;;;;;;;0.40;0.30;;;10.00;99.90;;;;;;4935509;29;20391;-75
2022/05/29 05:03:24;;;;;;;0.40;0.28;;;10.00;99.90;;;;;;4935946;29;20408;-75
2022/05/29 05:05:49;;;;;;;0.40;0.20;;;10.20;99.90;;;;;;4935630;29;20407;-75
2022/05/29 05:08:15;;;;;;;0.40;0.30;;;10.10;99.90;;;;;;4925000;29;20403;-75
2022/05/29 05:10:42;;;;;;;0.40;0.20;;;10.20;99.90;;;;;;4927456;29;20899;-75
2022/05/29 05:13:08;;;;;;;0.40;0.30;;;10.30;99.90;;;;;;4921148;29;20463;-75
2022/05/29 05:15:35;;;;;;;0.70;0.70;;;10.40;99.90;;;;;;4932111;29;20453;-75
2022/05/29 05:18:01;;;;;;;0.50;0.50;;;10.40;99.90;;;;;;4916519;29;20743;-74
2022/05/29 05:20:27;;;;;;;0.40;0.20;;;10.50;99.90;;;;;;4932564;29;20408;-74
2022/05/29 05:22:53;;;;;;;0.40;0.20;;;10.60;99.90;;;;;;4928743;29;20415;-75
2022/05/29 05:25:19;;;;;;;0.40;0.30;;;10.70;99.90;;;;;;4926979;29;20428;-74
2022/05/29 05:27:45;;;;;;;0.40;0.20;;;10.70;99.90;;;;;;4933490;29;20602;-74
2022/05/29 05:30:11;;;;;;;0.40;0.20;;;10.80;99.90;;;;;;4925924;29;21105;-74
2022/05/29 05:32:37;;;;;;;0.40;0.20;;;10.80;99.90;;;;;;4933786;29;20753;-74
2022/05/29 05:35:06;;;;;;;0.90;0.90;;;10.70;99.90;;;;;;4927133;29;20422;-74
2022/05/29 05:37:35;;;;;;;0.40;0.30;;;10.80;99.90;;;;;;4928844;29;20454;-74
2022/05/29 05:40:02;;;;;;;0.40;0.20;;;10.90;99.90;;;;;;4925985;29;20411;-72
2022/05/29 05:42:28;;;;;;;0.40;0.25;;;11.10;99.90;;;;;;4934080;29;20400;-74
2022/05/29 05:44:54;;;;;;;0.40;0.20;;;11.20;99.90;;;;;;4926094;29;20769;-74
2022/05/29 05:47:22;;;;;;;0.40;0.20;;;11.10;99.90;;;;;;4929471;29;20441;-73
2022/05/29 05:49:51;;;;;;;0.40;0.20;;;11.10;99.90;;;;;;4931365;29;20502;-74
2022/05/29 05:52:18;;;;;;;0.40;0.20;;;11.20;99.90;;;;;;4925899;29;20420;-73
2022/05/29 05:54:44;;;;;;;0.40;0.30;;;11.20;99.90;;;;;;4926758;29;20928;-74
2022/05/29 05:57:10;;;;;;;0.40;0.30;;;11.30;99.90;;;;;;4923095;29;20433;-72
2022/05/29 05:59:38;;;;;;;0.40;0.20;;;11.30;99.90;;;;;;4920411;29;20430;-74
2022/05/29 06:02:06;;;;;;;0.40;0.20;;;11.40;99.90;;;;;;4922664;29;20407;-74
2022/05/29 06:04:31;;;;;;;0.40;0.30;;;11.50;99.90;;;;;;4927823;29;20418;-74
2022/05/29 06:06:57;;;;;;;0.40;0.20;;;11.60;99.90;;;;;;4933268;29;20404;-74
2022/05/29 06:09:23;;;;;;;0.40;0.30;;;11.50;99.90;;;;;;4917655;29;20459;-74
2022/05/29 06:11:49;;;;;;;0.40;0.20;;;11.60;99.90;;;;;;4944656;29;20444;-74
2022/05/29 06:14:15;;;;;;;0.40;0.23;;;11.60;99.90;;;;;;4904126;29;21160;-74
2022/05/29 06:16:40;;;;;;;0.40;0.30;;;11.60;99.90;;;;;;4931564;29;20524;-74
2022/05/29 06:19:07;;;;;;;0.40;0.20;;;11.50;99.90;;;;;;4923797;29;20723;-72
2022/05/29 06:21:34;;;;;;;0.40;0.20;;;11.50;99.90;;;;;;4932863;29;20439;-71
2022/05/29 06:23:59;;;;;;;0.40;0.30;;;11.50;99.90;;;;;;4925291;29;20497;-73
2022/05/29 06:26:25;;;;;;;10.50;3.20;;;11.60;99.90;;;;;;4925020;29;20420;-73
2022/05/29 06:28:51;;;;;;;0.70;0.67;;;11.50;99.90;;;;;;4926157;29;20402;-72
2022/05/29 06:31:16;;;;;;;0.40;0.20;;;11.70;99.90;;;;;;4936853;29;21306;-73
2022/05/29 06:33:42;;;;;;;0.40;0.37;;;11.70;99.90;;;;;;4922826;29;20767;-72
2022/05/29 06:36:15;;;;;;;0.50;0.50;;;11.70;99.90;;;;;;4920171;29;20509;-73
2022/05/29 06:38:43;;;;;;;0.40;0.20;;;11.70;99.90;;;;;;4927430;29;20407;-72
2022/05/29 06:41:10;;;;;;;0.40;0.20;;;11.70;99.90;;;;;;4922778;29;20480;-71
2022/05/29 06:43:37;;;;;;;0.40;0.20;;;11.80;99.90;;;;;;4925481;29;20441;-73
2022/05/29 06:46:04;;;;;;;0.40;0.20;;;11.90;99.90;;;;;;4923439;29;20765;-74
2022/05/29 06:48:35;;;;;;;0.40;0.25;;;11.90;99.90;;;;;;4921729;29;20412;-79
2022/05/29 06:51:22;;;;;;;0.40;0.30;;;11.90;99.90;;;;;;4927822;29;20422;-79
2022/05/29 06:53:52;;;;;;;0.40;0.25;;;11.90;99.90;;;;;;4926249;29;20438;-73
2022/05/29 06:56:19;;;;;;;0.40;0.20;;;12.00;99.90;;;;;;4918478;29;20413;-72
2022/05/29 06:58:46;;;;;;;0.40;0.20;;;12.30;99.90;;;;;;4929431;29;20437;-73
2022/05/29 07:07:00;;;;;;;0.40;0.20;;;12.40;99.70;;;;;;4925413;29;20765;-72
2022/05/29 07:09:36;;;;;;;1.30;1.10;;;12.60;99.70;;;;;;4926196;29;20484;-71
2022/05/29 07:12:11;;;;;;;0.40;0.20;;;12.50;99.10;;;;;;4929108;29;20528;-72
2022/05/29 07:14:56;;;;;;;0.40;0.20;;;12.60;98.90;;;;;;4914894;29;20906;-70
2022/05/29 07:17:22;;;;;;;0.40;0.20;;;12.70;99.10;;;;;;4944726;29;20427;-71
2022/05/29 07:19:48;;;;;;;0.40;0.20;;;12.50;98.80;;;;;;4923262;29;20880;-72
2022/05/29 07:22:15;;;;;;;0.40;0.20;;;12.60;99.30;;;;;;4926495;29;20400;-72
2022/05/29 07:24:43;;;;;;;0.40;0.20;;;12.60;99.70;;;;;;4930623;29;20435;-73
2022/05/29 07:27:10;;;;;;;0.40;0.30;;;12.70;99.90;;;;;;4942481;29;20412;-73
2022/05/29 07:29:35;;;;;;;0.40;0.20;;;12.70;98.70;;;;;;4935237;28;20509;-70
2022/05/29 07:32:02;;;;;;;0.40;0.20;;;12.60;98.90;;;;;;4926780;29;20422;-73
2022/05/29 07:34:29;;;;;;;0.40;0.28;;;12.60;99.90;;;;;;4929495;29;20495;-71
2022/05/29 07:37:05;;;;;;;0.40;0.20;;;12.70;99.90;;;;;;4931585;29;20427;-70
2022/05/29 07:39:38;;;;;;;0.40;0.20;;;12.60;99.90;;;;;;4930279;29;20407;-70
2022/05/29 07:44:52;;;;;;;0.60;0.60;;;12.80;99.90;;;;;;4932874;29;20470;-72
2022/05/29 07:47:18;;;;;;;0.40;0.20;;;12.90;99.90;;;;;;4918345;29;20537;-73
2022/05/29 07:49:44;;;;;;;0.50;0.50;;;12.80;99.90;;;;;;4922105;29;20798;-72
2022/05/29 07:52:10;;;;;;;0.40;0.30;;;13.00;99.90;;;;;;4930392;29;20400;-69
2022/05/29 07:54:35;;;;;;;0.40;0.20;;;13.00;99.90;;;;;;4938653;29;20838;-72
2022/05/29 07:57:01;;;;;;;0.40;0.30;;;13.10;99.90;;;;;;4938190;29;20898;-71
2022/05/29 07:59:27;;;;;;;0.40;0.20;;;13.00;99.90;;;;;;4941529;29;20489;-70
2022/05/29 08:01:52;;;;;;;0.40;0.30;;;13.10;99.90;;;;;;4929476;29;20462;-70
2022/05/29 08:04:18;;;;;;;0.40;0.20;;;13.20;99.90;;;;;;4936081;29;20957;-70
2022/05/29 08:06:44;;;;;;;0.40;0.30;;;13.20;99.90;;;;;;4942499;29;20441;-69
2022/05/29 08:09:10;;;;;;;0.40;0.30;;;13.20;99.90;;;;;;4931249;28;20435;-70
2022/05/29 08:11:35;;;;;;;0.40;0.20;;;13.10;99.50;;;;;;4920022;29;20467;-71
2022/05/29 08:14:01;;;;;;;0.40;0.20;;;13.40;99.30;;;;;;4938632;29;20423;-71
2022/05/29 08:16:28;;;;;;;0.40;0.20;;;13.20;98.10;;;;;;4940471;29;20410;-71
2022/05/29 08:18:53;;;;;;;0.40;0.20;;;13.20;97.90;;;;;;4946169;29;21008;-71
2022/05/29 08:21:20;;;;;;;0.40;0.20;;;13.30;97.80;;;;;;4933554;29;20406;-72
2022/05/29 08:31:58;;;;;;;0.40;0.20;;;13.60;95.50;;;;;;4932486;29;20499;-68
2022/05/29 08:34:24;;;;;;;0.40;0.20;;;13.70;95.80;;;;;;4917853;29;20512;-70
2022/05/29 08:36:49;;;;;;;0.40;0.20;;;13.80;95.60;;;;;;4925334;29;20409;-70
2022/05/29 08:39:15;;;;;;;0.40;0.20;;;14.00;95.90;;;;;;4922238;29;20480;-70
2022/05/29 08:41:48;;;;;;;0.40;0.20;;;14.20;95.20;;;;;;4928437;29;20492;-68
2022/05/29 08:44:23;;;;;;;0.40;0.20;;;14.10;94.50;;;;;;4923737;29;20490;-67
2022/05/29 08:46:52;;;;;;;0.40;0.20;;;14.00;94.70;;;;;;4925304;29;20409;-70
2022/05/29 08:49:22;;;;;;;0.40;0.30;;;14.30;94.40;;;;;;4920759;29;20413;-69
2022/05/29 08:51:58;;;;;;;0.40;0.20;;;14.40;93.80;;;;;;4929857;29;20416;-71
2022/05/29 08:54:27;;;;;;;0.40;0.20;;;14.40;94.00;;;;;;4917796;29;21434;-68
2022/05/29 08:57:23;;;;;;;0.40;0.20;;;14.30;93.90;;;;;;4921172;29;20464;-73
2022/05/29 08:59:55;;;;;;;0.40;0.30;;;14.40;93.50;;;;;;4921438;29;20855;-71
2022/05/29 09:02:53;;;;;;;0.40;0.40;;;14.30;94.00;;;;;;4935102;29;20396;-70
2022/05/29 09:05:38;;;;;;;0.40;0.20;;;14.00;94.80;;;;;;4934000;29;20538;-71
2022/05/29 09:08:11;;;;;;;0.40;0.20;;;14.10;93.90;;;;;;4950562;29;20495;-76
2022/05/29 09:10:49;;;;;;;0.40;0.20;;;14.30;93.30;;;;;;4936323;29;20399;-72
2022/05/29 09:13:45;;;;;;;0.40;0.20;;;14.20;93.00;;;;;;4935433;29;20415;-70
2022/05/29 09:16:20;;;;;;;0.40;0.20;;;14.20;92.60;;;;;;4933810;29;20414;-71
2022/05/29 09:19:26;;;;;;;0.40;0.20;;;14.20;92.00;;;;;;4936059;29;20383;-71
2022/05/29 09:21:58;;;;;;;0.40;0.20;;;14.10;92.40;;;;;;4934683;29;20495;-69
2022/05/29 09:24:33;;;;;;;0.40;0.30;;;14.00;92.60;;;;;;4933445;29;21019;-71
2022/05/29 09:26:59;;;;;;;0.40;0.20;;;14.00;93.10;;;;;;4934563;29;20404;-69
2022/05/29 09:29:25;;;;;;;0.50;0.40;;;14.00;92.90;;;;;;4935011;29;20450;-71
2022/05/29 09:31:52;;;;;;;0.40;0.20;;;14.00;92.70;;;;;;4935788;29;20904;-71
2022/05/29 09:34:17;;;;;;;0.40;0.20;;;14.10;92.10;;;;;;4934735;29;20471;-73
2022/05/29 09:37:05;;;;;;;0.40;0.20;;;14.10;91.40;;;;;;4935742;29;20761;-71
2022/05/29 09:39:40;;;;;;;0.40;0.20;;;14.00;90.70;;;;;;4935019;29;20400;-70
2022/05/29 09:42:14;;;;;;;0.60;0.60;;;14.20;91.00;;;;;;4935005;29;20388;-73
2022/05/29 09:45:05;;;;;;;0.40;0.23;;;14.40;90.00;;;;;;4935613;29;20549;-70
2022/05/29 09:50:16;;;;;;;0.40;0.20;;;14.70;90.10;;;;;;4934382;29;20391;-71
2022/05/29 09:52:44;;;;;;;0.40;0.30;;;14.50;89.80;;;;;;4935243;29;20396;-70
2022/05/29 09:55:36;;;;;;;0.40;0.20;;;14.50;89.50;;;;;;4949354;29;20403;-71
2022/05/29 09:58:04;;;;;;;0.40;0.30;;;14.60;90.00;;;;;;4935397;29;20451;-71
2022/05/29 10:00:36;;;;;;;0.40;0.30;;;14.70;90.00;;;;;;4933270;29;20399;-70
2022/05/29 10:03:07;;;;;;;0.40;0.28;;;15.00;88.90;;;;;;4949847;29;20893;-72
2022/05/29 10:05:37;;;;;;;0.40;0.20;;;14.90;87.30;;;;;;4934779;29;20403;-70
2022/05/29 10:08:31;;;;;;;0.40;0.20;;;14.90;87.00;;;;;;4934845;29;20427;-70
2022/05/29 10:11:17;;;;;;;0.40;0.30;;;14.90;88.00;;;;;;4934981;29;20404;-71
2022/05/29 10:13:43;;;;;;;0.40;0.20;;;14.90;84.50;;;;;;4935109;29;20402;-72
2022/05/29 10:16:11;;;;;;;0.40;0.20;;;14.90;83.90;;;;;;4934322;29;20387;-74
2022/05/29 10:18:42;;;;;;;0.40;0.20;;;14.80;83.40;;;;;;4934578;29;20395;-70
2022/05/29 10:21:10;;;;;;;0.40;0.30;;;14.80;80.70;;;;;;4934370;29;20384;-72
2022/05/29 10:23:37;;;;;;;0.40;0.20;;;14.70;82.00;;;;;;4934155;29;20526;-72
2022/05/29 10:26:33;;;;;;;0.40;0.30;;;14.70;81.20;;;;;;4934656;29;20392;-71
2022/05/29 10:29:01;;;;;;;0.40;0.20;;;14.90;79.90;;;;;;4926726;29;20483;-71
2022/05/29 10:31:35;;;;;;;0.40;0.30;;;14.70;82.10;;;;;;4933757;29;20485;-71
2022/05/29 10:34:12;;;;;;;0.40;0.20;;;14.70;81.00;;;;;;4933661;29;20451;-69
2022/05/29 10:36:39;;;;;;;0.40;0.30;;;14.80;79.80;;;;;;4934592;29;20435;-72
2022/05/29 10:39:17;;;;;;;0.40;0.30;;;14.90;79.30;;;;;;4934394;29;20391;-72
2022/05/29 10:41:44;;;;;;;0.40;0.20;;;14.90;80.10;;;;;;4934211;29;20403;-71
2022/05/29 10:44:34;;;;;;;0.40;0.30;;;15.00;82.70;;;;;;4933520;29;20510;-72
2022/05/29 10:47:08;;;;;;;0.40;0.30;;;14.90;81.20;;;;;;4934171;29;20450;-72
2022/05/29 10:49:38;;;;;;;0.40;0.20;;;15.50;83.40;;;;;;4948287;29;20407;-72
2022/05/29 10:52:10;;;;;;;0.40;0.30;;;15.80;82.30;;;;;;4933981;29;20396;-70
2022/05/29 10:54:57;;;;;;;0.40;0.20;;;16.20;75.60;;;;;;4933615;29;20915;-71
2022/05/29 10:57:26;;;;;;;0.40;0.20;;;15.80;75.40;;;;;;4933253;29;20764;-71
2022/05/29 11:00:06;;;;;;;0.40;0.30;;;15.60;73.90;;;;;;4932827;29;20428;-71
2022/05/29 11:03:18;;;;;;;0.40;0.20;;;15.20;74.50;;;;;;4931954;29;20407;-70
2022/05/29 11:06:06;;;;;;;0.40;0.30;;;15.00;77.10;;;;;;4934152;29;20387;-69
2022/05/29 11:08:34;;;;;;;0.40;0.30;;;15.30;77.40;;;;;;4933069;29;20686;-70
2022/05/29 11:11:09;;;;;;;0.40;0.30;;;15.40;77.50;;;;;;4932752;29;20407;-70
2022/05/29 11:14:14;;;;;;;0.40;0.20;;;15.50;76.50;;;;;;4932055;29;20869;-70
2022/05/29 11:16:40;;;;;;;0.40;0.20;;;15.80;75.90;;;;;;4923392;29;20417;-72
2022/05/29 11:19:06;;;;;;;0.40;0.20;;;15.60;75.30;;;;;;4921313;29;20923;-72
2022/05/29 11:21:45;;;;;;;0.40;0.20;;;15.40;76.60;;;;;;4923918;29;20580;-71
2022/05/29 11:24:34;;;;;;;0.40;0.20;;;16.40;76.60;;;;;;4922715;29;20468;-72
2022/05/29 11:27:06;;;;;;;0.40;0.40;;;17.10;70.10;;;;;;4922567;29;20399;-70
2022/05/29 11:29:50;;;;;;;0.40;0.20;;;17.30;66.60;;;;;;4927835;29;20496;-71
2022/05/29 11:32:27;;;;;;;0.40;0.30;;;16.60;66.60;;;;;;4933781;29;20399;-70
2022/05/29 11:35:17;;;;;;;0.40;0.30;;;17.10;65.60;;;;;;4934622;29;20402;-72
2022/05/29 11:37:49;;;;;;;0.40;0.20;;;17.50;65.80;;;;;;4933672;29;20748;-70
2022/05/29 11:40:29;;;;;;;0.40;0.20;;;16.60;65.30;;;;;;4932469;29;20801;-71
2022/05/29 11:43:05;;;;;;;0.50;0.50;;;17.30;67.20;;;;;;4933709;29;20900;-72
2022/05/29 11:51:25;;;;;;;0.40;0.20;;;18.70;58.00;;;;;;4932601;29;20435;-72
2022/05/29 11:54:10;;;;;;;0.40;0.20;;;19.10;56.90;;;;;;4933122;29;20415;-72
2022/05/29 11:56:49;;;;;;;0.40;0.30;;;20.00;58.70;;;;;;4932763;29;20400;-72
2022/05/29 11:59:45;;;;;;;0.40;0.30;;;18.60;59.20;;;;;;4932701;29;20442;-71
2022/05/29 12:02:19;;;;;;;0.40;0.30;;;18.60;60.20;;;;;;4933353;29;20864;-72
2022/05/29 12:04:56;;;;;;;0.40;0.30;;;20.30;60.00;;;;;;4933262;29;20455;-73
2022/05/29 12:07:50;;;;;;;0.40;0.30;;;21.00;57.50;;;;;;4932782;29;20419;-72
2022/05/29 12:10:23;;;;;;;0.40;0.40;;;19.10;53.90;;;;;;4932689;29;20768;-76
2022/05/29 12:13:05;;;;;;;0.40;0.30;;;21.40;50.40;;;;;;4933300;29;20486;-73
2022/05/29 12:15:30;;;;;;;0.40;0.20;;;19.70;51.30;;;;;;4915317;29;20910;-74
2022/05/29 12:18:18;;;;;;;0.40;0.30;;;19.10;49.70;;;;;;4931986;29;20399;-74
2022/05/29 12:20:53;;;;;;;0.40;0.30;;;19.10;50.00;;;;;;4933161;29;20395;-71
2022/05/29 12:23:25;;;;;;;0.40;0.20;;;19.40;50.00;;;;;;4931055;29;20899;-72
2022/05/29 12:26:00;;;;;;;0.40;0.20;;;19.40;49.90;;;;;;4932845;29;20498;-72
2022/05/29 12:28:59;;;;;;;0.40;0.20;;;20.00;48.90;;;;;;4932518;29;20398;-70
2022/05/29 12:31:39;;;;;;;0.40;0.20;;;19.20;48.30;;;;;;4932475;29;20398;-70
2022/05/29 12:34:08;;;;;;;0.40;0.30;;;19.60;45.90;;;;;;4933220;29;20400;-71
2022/05/29 12:37:00;;;;;;;0.40;0.30;;;19.40;46.30;;;;;;4930737;29;20413;-71
2022/05/29 12:39:29;;;;;;;0.40;0.20;;;19.80;44.00;;;;;;4930976;29;20399;-73
2022/05/29 12:42:15;;;;;;;0.40;0.30;;;19.10;45.30;;;;;;4933049;29;20400;-71
2022/05/29 12:45:14;;;;;;;0.40;0.30;;;19.70;43.70;;;;;;4932530;29;20462;-71
2022/05/29 12:47:56;;;;;;;0.40;0.20;;;19.50;46.80;;;;;;4915445;29;20408;-73
2022/05/29 12:50:53;;;;;;;0.40;0.20;;;19.20;46.90;;;;;;4932516;29;20387;-73
2022/05/29 12:53:38;;;;;;;0.40;0.30;;;19.00;48.20;;;;;;4923686;29;20896;-73
2022/05/29 12:56:18;;;;;;;0.40;0.20;;;19.00;48.10;;;;;;4934035;29;20942;-70
2022/05/29 12:58:44;;;;;;;0.40;0.20;;;18.20;48.30;;;;;;4935028;29;20884;-72
2022/05/29 13:01:13;;;;;;;0.40;0.20;;;18.80;48.70;;;;;;4936120;29;20407;-72
2022/05/29 13:03:58;;;;;;;0.40;0.20;;;19.70;48.60;;;;;;4934138;29;20558;-71
2022/05/29 13:06:48;;;;;;;0.40;0.20;;;19.00;48.40;;;;;;4935371;29;20411;-71
2022/05/29 13:09:51;;;;;;;0.40;0.20;;;19.00;48.20;;;;;;4936267;29;20431;-72
2022/05/29 13:12:21;;;;;;;0.40;0.20;;;17.30;49.80;;;;;;4935593;29;20396;-74
2022/05/29 13:14:56;;;;;;;0.40;0.20;;;16.70;52.70;;;;;;4936145;29;20796;-70
2022/05/29 13:17:25;;;;;;;0.40;0.30;;;17.20;53.00;;;;;;4934542;29;20853;-71
2022/05/29 13:19:57;;;;;;;0.40;0.20;;;17.40;52.70;;;;;;4929255;29;20448;-71
2022/05/29 13:22:50;;;;;;;0.40;0.20;;;16.90;53.00;;;;;;4915221;29;20480;-72
2022/05/29 13:25:21;;;;;;;0.45;0.40;;;16.80;52.00;;;;;;4927606;29;20796;-72
2022/05/29 13:27:47;;;;;;;0.40;0.20;;;17.70;50.10;;;;;;4934376;29;21016;-70
2022/05/29 13:30:35;;;;;;;0.40;0.20;;;18.50;48.90;;;;;;4934280;29;20494;-70
2022/05/29 13:33:25;;;;;;;0.40;0.20;;;18.90;49.50;;;;;;4935502;29;20749;-76
2022/05/29 13:35:51;;;;;;;0.40;0.30;;;18.00;51.90;;;;;;4934235;29;20403;-69
2022/05/29 13:38:45;;;;;;;0.40;0.20;;;18.50;51.30;;;;;;4935621;29;20392;-71
2022/05/29 13:42:02;;;;;;;0.40;0.28;;;18.50;50.70;;;;;;4935399;29;20888;-71
2022/05/29 13:44:35;;;;;;;0.40;0.20;;;17.80;51.00;;;;;;4875810;29;20436;-71
2022/05/29 13:47:19;;;;;;;0.40;0.20;;;18.70;50.60;;;;;;4926105;29;20418;-72
2022/05/29 13:50:01;;;;;;;0.40;0.30;;;18.80;48.60;;;;;;4934889;29;20426;-70
2022/05/29 13:52:54;;;;;;;0.40;0.20;;;19.00;48.40;;;;;;4934764;29;20415;-70
2022/05/29 13:55:20;;;;;;;0.40;0.20;;;19.60;50.50;;;;;;4928686;29;20420;-76